sensor_id;sensor_type;location;lat;lon;timestamp;P1;durP1;ratioP1;P2;durP2;ratioP2
61250;SDS011;47126;47.508;8.590;2023-04-01T00:00:18;3.67;;;1.05;;
61250;SDS011;47126;47.508;8.590;2023-04-01T00:02:44;3.88;;;1.15;;
61250;SDS011;47126;47.508;8.590;2023-04-01T00:05:11;3.03;;;0.90;;
61250;SDS011;47126;47.508;8.590;2023-04-01T00:07:37;4.65;;;0.80;;
61250;SDS011;47126;47.508;8.590;2023-04-01T00:10:04;1.95;;;0.60;;
61250;SDS011;47126;47.508;8.590;2023-04-01T00:12:30;1.88;;;0.70;;
61250;SDS011;47126;47.508;8.590;2023-04-01T00:14:56;2.55;;;0.85;;
61250;SDS011;47126;47.508;8.590;2023-04-01T00:17:22;7.82;;;0.60;;
61250;SDS011;47126;47.508;8.590;2023-04-01T00:19:48;2.10;;;0.65;;
61250;SDS011;47126;47.508;8.590;2023-04-01T00:22:14;2.00;;;0.70;;
61250;SDS011;47126;47.508;8.590;2023-04-01T00:24:40;3.92;;;0.68;;
61250;SDS011;47126;47.508;8.590;2023-04-01T00:27:08;3.20;;;0.55;;
61250;SDS011;47126;47.508;8.590;2023-04-01T00:29:34;1.90;;;0.60;;
61250;SDS011;47126;47.508;8.590;2023-04-01T00:32:00;2.83;;;0.55;;
61250;SDS011;47126;47.508;8.590;2023-04-01T00:34:26;2.47;;;0.80;;
61250;SDS011;47126;47.508;8.590;2023-04-01T00:36:52;1.58;;;0.50;;
61250;SDS011;47126;47.508;8.590;2023-04-01T00:39:19;4.60;;;0.55;;
61250;SDS011;47126;47.508;8.590;2023-04-01T00:41:45;2.70;;;0.50;;
61250;SDS011;47126;47.508;8.590;2023-04-01T00:44:20;2.17;;;0.50;;
61250;SDS011;47126;47.508;8.590;2023-04-01T00:46:46;1.55;;;0.60;;
61250;SDS011;47126;47.508;8.590;2023-04-01T00:49:13;2.75;;;0.60;;
61250;SDS011;47126;47.508;8.590;2023-04-01T00:51:40;5.22;;;0.60;;
61250;SDS011;47126;47.508;8.590;2023-04-01T00:54:06;3.28;;;0.77;;
61250;SDS011;47126;47.508;8.590;2023-04-01T00:56:37;5.00;;;0.95;;
61250;SDS011;47126;47.508;8.590;2023-04-01T00:59:15;4.45;;;0.75;;
61250;SDS011;47126;47.508;8.590;2023-04-01T01:01:41;4.45;;;0.90;;
61250;SDS011;47126;47.508;8.590;2023-04-01T01:04:19;3.17;;;1.05;;
61250;SDS011;47126;47.508;8.590;2023-04-01T01:06:46;1.58;;;0.85;;
61250;SDS011;47126;47.508;8.590;2023-04-01T01:17:09;3.05;;;0.40;;
61250;SDS011;47126;47.508;8.590;2023-04-01T01:24:52;1.85;;;0.60;;
61250;SDS011;47126;47.508;8.590;2023-04-01T01:27:20;1.63;;;0.80;;
61250;SDS011;47126;47.508;8.590;2023-04-01T01:30:01;4.60;;;0.60;;
61250;SDS011;47126;47.508;8.590;2023-04-01T01:40:07;0.40;;;0.35;;
61250;SDS011;47126;47.508;8.590;2023-04-01T01:42:34;3.05;;;0.65;;
61250;SDS011;47126;47.508;8.590;2023-04-01T01:45:03;3.38;;;0.60;;
61250;SDS011;47126;47.508;8.590;2023-04-01T01:47:29;4.22;;;1.00;;
61250;SDS011;47126;47.508;8.590;2023-04-01T01:49:56;8.32;;;0.80;;
61250;SDS011;47126;47.508;8.590;2023-04-01T01:52:23;2.67;;;0.80;;
61250;SDS011;47126;47.508;8.590;2023-04-01T01:54:49;5.45;;;0.95;;
61250;SDS011;47126;47.508;8.590;2023-04-01T01:57:16;4.20;;;0.50;;
61250;SDS011;47126;47.508;8.590;2023-04-01T01:59:43;4.45;;;0.60;;
61250;SDS011;47126;47.508;8.590;2023-04-01T02:02:12;6.45;;;1.00;;
61250;SDS011;47126;47.508;8.590;2023-04-01T02:04:39;3.95;;;0.52;;
61250;SDS011;47126;47.508;8.590;2023-04-01T02:07:10;2.40;;;0.75;;
61250;SDS011;47126;47.508;8.590;2023-04-01T02:09:38;5.40;;;1.48;;
61250;SDS011;47126;47.508;8.590;2023-04-01T02:12:05;2.30;;;0.60;;
61250;SDS011;47126;47.508;8.590;2023-04-01T02:14:45;2.45;;;0.60;;
61250;SDS011;47126;47.508;8.590;2023-04-01T02:17:17;2.72;;;0.88;;
61250;SDS011;47126;47.508;8.590;2023-04-01T02:19:48;3.72;;;0.70;;
61250;SDS011;47126;47.508;8.590;2023-04-01T02:22:20;3.00;;;1.13;;
61250;SDS011;47126;47.508;8.590;2023-04-01T02:24:47;3.88;;;0.93;;
61250;SDS011;47126;47.508;8.590;2023-04-01T02:27:14;1.80;;;0.80;;
61250;SDS011;47126;47.508;8.590;2023-04-01T02:29:40;2.38;;;0.90;;
61250;SDS011;47126;47.508;8.590;2023-04-01T02:32:06;2.60;;;0.70;;
61250;SDS011;47126;47.508;8.590;2023-04-01T02:34:33;4.65;;;1.20;;
61250;SDS011;47126;47.508;8.590;2023-04-01T02:36:59;6.97;;;0.90;;
61250;SDS011;47126;47.508;8.590;2023-04-01T02:39:25;4.97;;;0.90;;
61250;SDS011;47126;47.508;8.590;2023-04-01T02:41:52;5.63;;;1.58;;
61250;SDS011;47126;47.508;8.590;2023-04-01T02:44:18;4.32;;;0.70;;
61250;SDS011;47126;47.508;8.590;2023-04-01T02:46:44;8.52;;;1.48;;
61250;SDS011;47126;47.508;8.590;2023-04-01T02:49:10;2.08;;;0.73;;
61250;SDS011;47126;47.508;8.590;2023-04-01T02:51:36;5.75;;;1.40;;
61250;SDS011;47126;47.508;8.590;2023-04-01T02:54:02;2.53;;;1.23;;
61250;SDS011;47126;47.508;8.590;2023-04-01T02:56:28;5.00;;;0.90;;
61250;SDS011;47126;47.508;8.590;2023-04-01T02:58:54;6.63;;;1.00;;
61250;SDS011;47126;47.508;8.590;2023-04-01T03:01:20;4.18;;;0.63;;
61250;SDS011;47126;47.508;8.590;2023-04-01T03:03:47;5.68;;;0.90;;
61250;SDS011;47126;47.508;8.590;2023-04-01T03:06:13;2.22;;;0.70;;
61250;SDS011;47126;47.508;8.590;2023-04-01T03:08:40;5.97;;;1.02;;
61250;SDS011;47126;47.508;8.590;2023-04-01T03:11:06;3.92;;;0.90;;
61250;SDS011;47126;47.508;8.590;2023-04-01T03:13:32;4.63;;;0.98;;
61250;SDS011;47126;47.508;8.590;2023-04-01T03:15:58;2.80;;;1.10;;
61250;SDS011;47126;47.508;8.590;2023-04-01T03:18:24;1.45;;;0.40;;
61250;SDS011;47126;47.508;8.590;2023-04-01T03:20:50;2.10;;;0.70;;
61250;SDS011;47126;47.508;8.590;2023-04-01T03:23:16;6.20;;;0.82;;
61250;SDS011;47126;47.508;8.590;2023-04-01T03:25:44;5.40;;;0.80;;
61250;SDS011;47126;47.508;8.590;2023-04-01T03:28:10;5.68;;;1.05;;
61250;SDS011;47126;47.508;8.590;2023-04-01T03:30:37;8.82;;;1.17;;
61250;SDS011;47126;47.508;8.590;2023-04-01T03:33:03;4.32;;;0.85;;
61250;SDS011;47126;47.508;8.590;2023-04-01T03:35:29;4.07;;;0.80;;
61250;SDS011;47126;47.508;8.590;2023-04-01T03:37:55;3.97;;;0.80;;
61250;SDS011;47126;47.508;8.590;2023-04-01T03:40:21;4.03;;;0.90;;
61250;SDS011;47126;47.508;8.590;2023-04-01T03:42:47;7.40;;;1.25;;
61250;SDS011;47126;47.508;8.590;2023-04-01T03:45:14;4.78;;;0.95;;
61250;SDS011;47126;47.508;8.590;2023-04-01T03:47:40;7.38;;;0.95;;
61250;SDS011;47126;47.508;8.590;2023-04-01T03:50:06;3.08;;;0.90;;
61250;SDS011;47126;47.508;8.590;2023-04-01T03:52:33;4.45;;;0.82;;
61250;SDS011;47126;47.508;8.590;2023-04-01T03:54:59;3.47;;;0.57;;
61250;SDS011;47126;47.508;8.590;2023-04-01T03:57:25;5.18;;;0.68;;
61250;SDS011;47126;47.508;8.590;2023-04-01T03:59:51;3.33;;;0.70;;
61250;SDS011;47126;47.508;8.590;2023-04-01T04:02:17;6.53;;;0.80;;
61250;SDS011;47126;47.508;8.590;2023-04-01T04:04:43;6.50;;;0.90;;
61250;SDS011;47126;47.508;8.590;2023-04-01T04:07:11;4.75;;;0.85;;
61250;SDS011;47126;47.508;8.590;2023-04-01T04:09:37;5.13;;;1.30;;
61250;SDS011;47126;47.508;8.590;2023-04-01T04:12:03;6.85;;;1.23;;
61250;SDS011;47126;47.508;8.590;2023-04-01T04:14:30;5.88;;;1.25;;
61250;SDS011;47126;47.508;8.590;2023-04-01T04:16:56;5.93;;;1.35;;
61250;SDS011;47126;47.508;8.590;2023-04-01T04:19:22;4.68;;;0.90;;
61250;SDS011;47126;47.508;8.590;2023-04-01T04:21:48;4.22;;;0.90;;
61250;SDS011;47126;47.508;8.590;2023-04-01T04:24:14;4.30;;;0.80;;
61250;SDS011;47126;47.508;8.590;2023-04-01T04:26:40;11.02;;;1.63;;
61250;SDS011;47126;47.508;8.590;2023-04-01T04:29:06;1.15;;;0.75;;
61250;SDS011;47126;47.508;8.590;2023-04-01T04:31:32;2.92;;;0.73;;
61250;SDS011;47126;47.508;8.590;2023-04-01T04:33:58;5.22;;;0.88;;
61250;SDS011;47126;47.508;8.590;2023-04-01T04:36:25;5.90;;;1.20;;
61250;SDS011;47126;47.508;8.590;2023-04-01T04:38:51;4.25;;;0.80;;
61250;SDS011;47126;47.508;8.590;2023-04-01T04:41:18;2.08;;;0.63;;
61250;SDS011;47126;47.508;8.590;2023-04-01T04:43:51;6.00;;;0.73;;
61250;SDS011;47126;47.508;8.590;2023-04-01T04:46:17;5.95;;;0.73;;
61250;SDS011;47126;47.508;8.590;2023-04-01T04:48:43;4.47;;;0.70;;
61250;SDS011;47126;47.508;8.590;2023-04-01T04:51:12;3.22;;;0.80;;
61250;SDS011;47126;47.508;8.590;2023-04-01T04:53:39;3.20;;;0.60;;
61250;SDS011;47126;47.508;8.590;2023-04-01T04:56:05;1.20;;;0.57;;
61250;SDS011;47126;47.508;8.590;2023-04-01T04:58:31;2.17;;;0.68;;
61250;SDS011;47126;47.508;8.590;2023-04-01T05:00:57;3.50;;;0.60;;
61250;SDS011;47126;47.508;8.590;2023-04-01T05:03:23;2.40;;;0.68;;
61250;SDS011;47126;47.508;8.590;2023-04-01T05:05:50;0.90;;;0.40;;
61250;SDS011;47126;47.508;8.590;2023-04-01T05:08:16;1.83;;;0.52;;
61250;SDS011;47126;47.508;8.590;2023-04-01T05:10:42;4.28;;;1.17;;
61250;SDS011;47126;47.508;8.590;2023-04-01T05:13:09;2.45;;;0.63;;
61250;SDS011;47126;47.508;8.590;2023-04-01T05:15:35;0.52;;;0.50;;
61250;SDS011;47126;47.508;8.590;2023-04-01T05:18:02;0.77;;;0.50;;
61250;SDS011;47126;47.508;8.590;2023-04-01T05:20:28;1.45;;;0.40;;
61250;SDS011;47126;47.508;8.590;2023-04-01T05:22:58;2.85;;;0.50;;
61250;SDS011;47126;47.508;8.590;2023-04-01T05:25:24;1.27;;;0.47;;
61250;SDS011;47126;47.508;8.590;2023-04-01T05:27:50;0.65;;;0.40;;
61250;SDS011;47126;47.508;8.590;2023-04-01T05:30:16;1.75;;;0.47;;
61250;SDS011;47126;47.508;8.590;2023-04-01T05:32:42;2.72;;;0.43;;
61250;SDS011;47126;47.508;8.590;2023-04-01T05:35:08;2.08;;;0.68;;
61250;SDS011;47126;47.508;8.590;2023-04-01T05:37:35;2.67;;;0.60;;
61250;SDS011;47126;47.508;8.590;2023-04-01T05:40:01;2.70;;;0.60;;
61250;SDS011;47126;47.508;8.590;2023-04-01T05:42:27;1.50;;;0.35;;
61250;SDS011;47126;47.508;8.590;2023-04-01T05:44:53;2.50;;;0.70;;
61250;SDS011;47126;47.508;8.590;2023-04-01T05:47:20;2.60;;;0.40;;
61250;SDS011;47126;47.508;8.590;2023-04-01T05:49:46;3.17;;;0.52;;
61250;SDS011;47126;47.508;8.590;2023-04-01T05:52:11;2.50;;;0.73;;
61250;SDS011;47126;47.508;8.590;2023-04-01T05:54:37;1.90;;;0.40;;
61250;SDS011;47126;47.508;8.590;2023-04-01T05:57:03;0.82;;;0.50;;
61250;SDS011;47126;47.508;8.590;2023-04-01T05:59:29;2.88;;;0.98;;
61250;SDS011;47126;47.508;8.590;2023-04-01T06:01:59;3.42;;;0.60;;
61250;SDS011;47126;47.508;8.590;2023-04-01T06:04:26;2.65;;;0.65;;
61250;SDS011;47126;47.508;8.590;2023-04-01T06:06:55;3.38;;;1.35;;
61250;SDS011;47126;47.508;8.590;2023-04-01T06:09:24;4.47;;;0.40;;
61250;SDS011;47126;47.508;8.590;2023-04-01T06:21:57;3.60;;;0.40;;
61250;SDS011;47126;47.508;8.590;2023-04-01T06:27:33;0.80;;;0.55;;
61250;SDS011;47126;47.508;8.590;2023-04-01T06:50:45;0.38;;;0.38;;
61250;SDS011;47126;47.508;8.590;2023-04-01T06:53:30;2.20;;;0.80;;
61250;SDS011;47126;47.508;8.590;2023-04-01T06:56:00;2.08;;;0.40;;
61250;SDS011;47126;47.508;8.590;2023-04-01T06:58:30;2.83;;;0.50;;
61250;SDS011;47126;47.508;8.590;2023-04-01T07:01:04;0.82;;;0.50;;
61250;SDS011;47126;47.508;8.590;2023-04-01T07:05:58;0.77;;;0.28;;
61250;SDS011;47126;47.508;8.590;2023-04-01T07:08:27;0.93;;;0.50;;
61250;SDS011;47126;47.508;8.590;2023-04-01T07:10:56;1.83;;;0.60;;
61250;SDS011;47126;47.508;8.590;2023-04-01T07:13:25;1.50;;;0.32;;
61250;SDS011;47126;47.508;8.590;2023-04-01T07:18:32;1.13;;;0.60;;
61250;SDS011;47126;47.508;8.590;2023-04-01T07:21:00;2.42;;;0.55;;
61250;SDS011;47126;47.508;8.590;2023-04-01T07:23:36;1.95;;;0.50;;
61250;SDS011;47126;47.508;8.590;2023-04-01T07:26:07;4.50;;;0.40;;
61250;SDS011;47126;47.508;8.590;2023-04-01T07:28:36;1.25;;;0.68;;
61250;SDS011;47126;47.508;8.590;2023-04-01T07:31:05;0.70;;;0.40;;
61250;SDS011;47126;47.508;8.590;2023-04-01T07:33:35;3.85;;;0.50;;
61250;SDS011;47126;47.508;8.590;2023-04-01T07:36:13;1.10;;;0.43;;
61250;SDS011;47126;47.508;8.590;2023-04-01T07:39:03;0.40;;;0.30;;
61250;SDS011;47126;47.508;8.590;2023-04-01T07:41:42;0.88;;;0.50;;
61250;SDS011;47126;47.508;8.590;2023-04-01T07:46:44;2.88;;;0.50;;
61250;SDS011;47126;47.508;8.590;2023-04-01T07:49:30;1.77;;;0.40;;
61250;SDS011;47126;47.508;8.590;2023-04-01T08:07:06;0.55;;;0.40;;
61250;SDS011;47126;47.508;8.590;2023-04-01T08:12:04;1.55;;;0.40;;
61250;SDS011;47126;47.508;8.590;2023-04-01T08:22:16;0.95;;;0.50;;
61250;SDS011;47126;47.508;8.590;2023-04-01T08:24:44;0.70;;;0.28;;
61250;SDS011;47126;47.508;8.590;2023-04-01T08:27:14;1.80;;;0.73;;
61250;SDS011;47126;47.508;8.590;2023-04-01T08:29:46;0.35;;;0.30;;
61250;SDS011;47126;47.508;8.590;2023-04-01T08:32:15;0.40;;;0.30;;
61250;SDS011;47126;47.508;8.590;2023-04-01T08:34:44;0.47;;;0.47;;
61250;SDS011;47126;47.508;8.590;2023-04-01T08:37:15;2.17;;;0.30;;
61250;SDS011;47126;47.508;8.590;2023-04-01T08:39:50;0.65;;;0.30;;
61250;SDS011;47126;47.508;8.590;2023-04-01T08:53:10;1.05;;;0.50;;
61250;SDS011;47126;47.508;8.590;2023-04-01T08:55:43;1.85;;;0.65;;
61250;SDS011;47126;47.508;8.590;2023-04-01T09:01:09;2.63;;;0.40;;
61250;SDS011;47126;47.508;8.590;2023-04-01T09:03:37;1.33;;;0.35;;
61250;SDS011;47126;47.508;8.590;2023-04-01T09:08:37;1.58;;;0.35;;
61250;SDS011;47126;47.508;8.590;2023-04-01T09:11:08;3.00;;;0.40;;
61250;SDS011;47126;47.508;8.590;2023-04-01T09:16:33;0.40;;;0.40;;
61250;SDS011;47126;47.508;8.590;2023-04-01T09:19:15;0.70;;;0.40;;
61250;SDS011;47126;47.508;8.590;2023-04-01T09:24:14;0.80;;;0.55;;
61250;SDS011;47126;47.508;8.590;2023-04-01T09:29:18;0.40;;;0.40;;
61250;SDS011;47126;47.508;8.590;2023-04-01T09:37:01;0.65;;;0.30;;
61250;SDS011;47126;47.508;8.590;2023-04-01T09:39:35;0.30;;;0.30;;
61250;SDS011;47126;47.508;8.590;2023-04-01T09:44:48;1.05;;;0.40;;
61250;SDS011;47126;47.508;8.590;2023-04-01T09:50:27;1.67;;;0.32;;
61250;SDS011;47126;47.508;8.590;2023-04-01T09:53:00;0.22;;;0.22;;
61250;SDS011;47126;47.508;8.590;2023-04-01T10:01:02;0.20;;;0.20;;
61250;SDS011;47126;47.508;8.590;2023-04-01T10:06:18;0.52;;;0.35;;
61250;SDS011;47126;47.508;8.590;2023-04-01T10:08:56;0.88;;;0.50;;
61250;SDS011;47126;47.508;8.590;2023-04-01T10:11:45;2.00;;;0.50;;
61250;SDS011;47126;47.508;8.590;2023-04-01T10:24:43;0.50;;;0.30;;
61250;SDS011;47126;47.508;8.590;2023-04-01T10:32:36;1.17;;;0.40;;
61250;SDS011;47126;47.508;8.590;2023-04-01T10:40:24;1.52;;;0.45;;
61250;SDS011;47126;47.508;8.590;2023-04-01T10:53:32;0.70;;;0.30;;
61250;SDS011;47126;47.508;8.590;2023-04-01T10:56:09;1.50;;;0.35;;
61250;SDS011;47126;47.508;8.590;2023-04-01T11:19:43;0.90;;;0.30;;
61250;SDS011;47126;47.508;8.590;2023-04-01T11:30:02;0.90;;;0.40;;
61250;SDS011;47126;47.508;8.590;2023-04-01T11:32:42;0.40;;;0.30;;
61250;SDS011;47126;47.508;8.590;2023-04-01T11:35:28;1.20;;;0.30;;
61250;SDS011;47126;47.508;8.590;2023-04-01T11:43:11;0.70;;;0.30;;
61250;SDS011;47126;47.508;8.590;2023-04-01T11:45:53;0.90;;;0.30;;
61250;SDS011;47126;47.508;8.590;2023-04-01T11:48:30;1.55;;;0.35;;
61250;SDS011;47126;47.508;8.590;2023-04-01T12:10:20;0.50;;;0.40;;
61250;SDS011;47126;47.508;8.590;2023-04-01T12:17:56;0.98;;;0.60;;
61250;SDS011;47126;47.508;8.590;2023-04-01T12:20:37;2.15;;;0.57;;
61250;SDS011;47126;47.508;8.590;2023-04-01T12:25:51;1.33;;;0.47;;
61250;SDS011;47126;47.508;8.590;2023-04-01T12:28:23;1.00;;;0.50;;
61250;SDS011;47126;47.508;8.590;2023-04-01T12:41:45;1.90;;;0.50;;
61250;SDS011;47126;47.508;8.590;2023-04-01T12:44:22;0.77;;;0.35;;
61250;SDS011;47126;47.508;8.590;2023-04-01T12:49:42;0.80;;;0.40;;
61250;SDS011;47126;47.508;8.590;2023-04-01T12:57:45;0.98;;;0.40;;
61250;SDS011;47126;47.508;8.590;2023-04-01T13:07:59;0.68;;;0.30;;
61250;SDS011;47126;47.508;8.590;2023-04-01T13:15:41;0.32;;;0.30;;
61250;SDS011;47126;47.508;8.590;2023-04-01T13:20:48;2.83;;;0.38;;
61250;SDS011;47126;47.508;8.590;2023-04-01T13:26:11;1.63;;;0.50;;
61250;SDS011;47126;47.508;8.590;2023-04-01T13:28:47;0.95;;;0.50;;
61250;SDS011;47126;47.508;8.590;2023-04-01T13:31:37;0.73;;;0.30;;
61250;SDS011;47126;47.508;8.590;2023-04-01T13:34:08;2.35;;;0.55;;
61250;SDS011;47126;47.508;8.590;2023-04-01T13:36:38;1.48;;;0.30;;
61250;SDS011;47126;47.508;8.590;2023-04-01T13:41:40;0.52;;;0.30;;
61250;SDS011;47126;47.508;8.590;2023-04-01T13:44:14;0.40;;;0.40;;
61250;SDS011;47126;47.508;8.590;2023-04-01T13:52:14;0.60;;;0.32;;
61250;SDS011;47126;47.508;8.590;2023-04-01T13:54:53;0.63;;;0.40;;
61250;SDS011;47126;47.508;8.590;2023-04-01T13:57:37;0.73;;;0.35;;
61250;SDS011;47126;47.508;8.590;2023-04-01T14:02:47;0.30;;;0.30;;
61250;SDS011;47126;47.508;8.590;2023-04-01T14:07:55;0.47;;;0.30;;
61250;SDS011;47126;47.508;8.590;2023-04-01T14:23:25;1.55;;;0.35;;
61250;SDS011;47126;47.508;8.590;2023-04-01T14:49:35;0.63;;;0.30;;
61250;SDS011;47126;47.508;8.590;2023-04-01T14:54:46;0.20;;;0.20;;
61250;SDS011;47126;47.508;8.590;2023-04-01T14:57:14;0.57;;;0.40;;
61250;SDS011;47126;47.508;8.590;2023-04-01T14:59:49;0.60;;;0.32;;
61250;SDS011;47126;47.508;8.590;2023-04-01T15:05:07;2.45;;;0.32;;
61250;SDS011;47126;47.508;8.590;2023-04-01T15:07:47;1.15;;;0.60;;
61250;SDS011;47126;47.508;8.590;2023-04-01T15:15:31;0.68;;;0.30;;
61250;SDS011;47126;47.508;8.590;2023-04-01T15:26:09;0.40;;;0.30;;
61250;SDS011;47126;47.508;8.590;2023-04-01T15:28:28;2.50;;;0.70;;
61250;SDS011;47126;47.508;8.590;2023-04-01T15:31:43;0.50;;;0.40;;
61250;SDS011;47126;47.508;8.590;2023-04-01T15:47:25;0.98;;;0.30;;
61250;SDS011;47126;47.508;8.590;2023-04-01T15:53:00;3.33;;;0.45;;
61250;SDS011;47126;47.508;8.590;2023-04-01T16:00:49;0.47;;;0.30;;
61250;SDS011;47126;47.508;8.590;2023-04-01T16:18:34;0.20;;;0.20;;
61250;SDS011;47126;47.508;8.590;2023-04-01T16:23:58;1.58;;;0.60;;
61250;SDS011;47126;47.508;8.590;2023-04-01T16:28:53;1.02;;;0.30;;
61250;SDS011;47126;47.508;8.590;2023-04-01T16:34:01;0.95;;;0.38;;
61250;SDS011;47126;47.508;8.590;2023-04-01T16:36:44;0.73;;;0.50;;
61250;SDS011;47126;47.508;8.590;2023-04-01T16:39:29;1.20;;;0.50;;
61250;SDS011;47126;47.508;8.590;2023-04-01T16:47:21;1.10;;;0.60;;
61250;SDS011;47126;47.508;8.590;2023-04-01T16:49:53;0.88;;;0.40;;
61250;SDS011;47126;47.508;8.590;2023-04-01T16:55:18;0.73;;;0.40;;
61250;SDS011;47126;47.508;8.590;2023-04-01T16:57:52;1.80;;;0.43;;
61250;SDS011;47126;47.508;8.590;2023-04-01T17:00:37;0.47;;;0.43;;
61250;SDS011;47126;47.508;8.590;2023-04-01T17:03:08;0.60;;;0.30;;
61250;SDS011;47126;47.508;8.590;2023-04-01T17:05:46;0.63;;;0.40;;
61250;SDS011;47126;47.508;8.590;2023-04-01T17:08:30;0.75;;;0.40;;
61250;SDS011;47126;47.508;8.590;2023-04-01T17:11:08;5.25;;;0.50;;
61250;SDS011;47126;47.508;8.590;2023-04-01T17:21:16;1.27;;;0.60;;
61250;SDS011;47126;47.508;8.590;2023-04-01T17:26:17;1.38;;;0.40;;
61250;SDS011;47126;47.508;8.590;2023-04-01T17:28:57;1.30;;;0.57;;
61250;SDS011;47126;47.508;8.590;2023-04-01T17:36:40;0.50;;;0.50;;
61250;SDS011;47126;47.508;8.590;2023-04-01T17:44:49;2.20;;;0.60;;
61250;SDS011;47126;47.508;8.590;2023-04-01T17:52:47;0.52;;;0.50;;
61250;SDS011;47126;47.508;8.590;2023-04-01T18:00:32;0.73;;;0.40;;
61250;SDS011;47126;47.508;8.590;2023-04-01T18:07:59;0.90;;;0.40;;
61250;SDS011;47126;47.508;8.590;2023-04-01T18:10:37;3.65;;;0.50;;
61250;SDS011;47126;47.508;8.590;2023-04-01T18:13:20;0.50;;;0.43;;
61250;SDS011;47126;47.508;8.590;2023-04-01T18:15:53;0.40;;;0.40;;
61250;SDS011;47126;47.508;8.590;2023-04-01T18:18:34;0.40;;;0.40;;
61250;SDS011;47126;47.508;8.590;2023-04-01T18:26:04;3.22;;;0.60;;
61250;SDS011;47126;47.508;8.590;2023-04-01T18:41:07;2.17;;;0.50;;
61250;SDS011;47126;47.508;8.590;2023-04-01T18:43:39;1.33;;;0.68;;
61250;SDS011;47126;47.508;8.590;2023-04-01T18:46:12;1.05;;;0.50;;
61250;SDS011;47126;47.508;8.590;2023-04-01T18:54:00;2.45;;;0.60;;
61250;SDS011;47126;47.508;8.590;2023-04-01T18:58:57;3.50;;;0.88;;
61250;SDS011;47126;47.508;8.590;2023-04-01T19:01:26;1.52;;;0.68;;
61250;SDS011;47126;47.508;8.590;2023-04-01T19:04:10;2.47;;;0.88;;
61250;SDS011;47126;47.508;8.590;2023-04-01T19:06:51;2.90;;;0.60;;
61250;SDS011;47126;47.508;8.590;2023-04-01T19:12:05;3.70;;;1.00;;
61250;SDS011;47126;47.508;8.590;2023-04-01T19:17:10;3.45;;;1.30;;
61250;SDS011;47126;47.508;8.590;2023-04-01T19:25:15;3.70;;;1.10;;
61250;SDS011;47126;47.508;8.590;2023-04-01T19:27:35;2.60;;;1.00;;
61250;SDS011;47126;47.508;8.590;2023-04-01T19:32:49;1.67;;;0.90;;
61250;SDS011;47126;47.508;8.590;2023-04-01T19:35:22;1.38;;;0.80;;
61250;SDS011;47126;47.508;8.590;2023-04-01T19:37:51;2.65;;;0.90;;
61250;SDS011;47126;47.508;8.590;2023-04-01T19:40:25;4.28;;;0.90;;
61250;SDS011;47126;47.508;8.590;2023-04-01T19:53:13;2.65;;;1.00;;
61250;SDS011;47126;47.508;8.590;2023-04-01T19:55:47;1.95;;;1.05;;
61250;SDS011;47126;47.508;8.590;2023-04-01T20:00:44;1.42;;;1.08;;
61250;SDS011;47126;47.508;8.590;2023-04-01T20:03:21;1.80;;;1.05;;
61250;SDS011;47126;47.508;8.590;2023-04-01T20:11:08;2.35;;;0.95;;
61250;SDS011;47126;47.508;8.590;2023-04-01T20:13:41;1.15;;;0.95;;
61250;SDS011;47126;47.508;8.590;2023-04-01T20:16:11;2.95;;;1.10;;
61250;SDS011;47126;47.508;8.590;2023-04-01T20:18:39;2.20;;;1.20;;
61250;SDS011;47126;47.508;8.590;2023-04-01T20:26:22;1.95;;;1.33;;
61250;SDS011;47126;47.508;8.590;2023-04-01T20:31:40;1.80;;;1.10;;
61250;SDS011;47126;47.508;8.590;2023-04-01T20:41:57;1.77;;;1.05;;
61250;SDS011;47126;47.508;8.590;2023-04-01T20:44:28;3.15;;;1.13;;
61250;SDS011;47126;47.508;8.590;2023-04-01T20:47:08;1.90;;;1.05;;
61250;SDS011;47126;47.508;8.590;2023-04-01T20:50:19;4.38;;;1.40;;
61250;SDS011;47126;47.508;8.590;2023-04-01T20:52:32;2.10;;;1.10;;
61250;SDS011;47126;47.508;8.590;2023-04-01T20:57:38;2.63;;;1.30;;
61250;SDS011;47126;47.508;8.590;2023-04-01T21:00:18;6.50;;;1.05;;
61250;SDS011;47126;47.508;8.590;2023-04-01T21:20:29;3.17;;;1.02;;
61250;SDS011;47126;47.508;8.590;2023-04-01T21:23:15;2.08;;;0.70;;
61250;SDS011;47126;47.508;8.590;2023-04-01T21:25:56;3.33;;;1.10;;
61250;SDS011;47126;47.508;8.590;2023-04-01T21:49:06;0.85;;;0.75;;
61250;SDS011;47126;47.508;8.590;2023-04-01T21:59:44;3.38;;;1.10;;
61250;SDS011;47126;47.508;8.590;2023-04-01T22:02:26;4.07;;;1.00;;
61250;SDS011;47126;47.508;8.590;2023-04-01T22:05:10;4.28;;;1.25;;
61250;SDS011;47126;47.508;8.590;2023-04-01T22:21:11;1.15;;;0.80;;
61250;SDS011;47126;47.508;8.590;2023-04-01T22:26:33;1.05;;;0.60;;
61250;SDS011;47126;47.508;8.590;2023-04-01T22:29:05;1.10;;;0.60;;
61250;SDS011;47126;47.508;8.590;2023-04-01T22:31:39;1.45;;;0.60;;
61250;SDS011;47126;47.508;8.590;2023-04-01T22:34:19;0.70;;;0.60;;
61250;SDS011;47126;47.508;8.590;2023-04-01T22:36:53;1.63;;;0.60;;
61250;SDS011;47126;47.508;8.590;2023-04-01T22:39:40;1.00;;;0.50;;
61250;SDS011;47126;47.508;8.590;2023-04-01T22:44:54;1.85;;;0.70;;
61250;SDS011;47126;47.508;8.590;2023-04-01T22:47:38;1.35;;;0.75;;
61250;SDS011;47126;47.508;8.590;2023-04-01T22:50:14;2.13;;;0.80;;
61250;SDS011;47126;47.508;8.590;2023-04-01T22:52:46;1.35;;;0.57;;
61250;SDS011;47126;47.508;8.590;2023-04-01T22:55:15;2.88;;;0.60;;
61250;SDS011;47126;47.508;8.590;2023-04-01T22:57:53;3.50;;;0.70;;
61250;SDS011;47126;47.508;8.590;2023-04-01T23:00:24;0.68;;;0.43;;
61250;SDS011;47126;47.508;8.590;2023-04-01T23:05:18;2.38;;;0.68;;
61250;SDS011;47126;47.508;8.590;2023-04-01T23:07:56;1.58;;;0.60;;
61250;SDS011;47126;47.508;8.590;2023-04-01T23:13:11;0.95;;;0.60;;
61250;SDS011;47126;47.508;8.590;2023-04-01T23:15:39;3.22;;;0.70;;
61250;SDS011;47126;47.508;8.590;2023-04-01T23:18:09;1.55;;;0.60;;
61250;SDS011;47126;47.508;8.590;2023-04-01T23:20:53;1.00;;;0.57;;
61250;SDS011;47126;47.508;8.590;2023-04-01T23:26:13;1.27;;;0.60;;
61250;SDS011;47126;47.508;8.590;2023-04-01T23:28:45;1.20;;;0.60;;
61250;SDS011;47126;47.508;8.590;2023-04-01T23:33:37;0.90;;;0.50;;
61250;SDS011;47126;47.508;8.590;2023-04-01T23:36:10;0.95;;;0.57;;
61250;SDS011;47126;47.508;8.590;2023-04-01T23:38:38;0.50;;;0.50;;
61250;SDS011;47126;47.508;8.590;2023-04-01T23:41:06;1.92;;;0.70;;
61250;SDS011;47126;47.508;8.590;2023-04-01T23:43:35;3.22;;;0.52;;
61250;SDS011;47126;47.508;8.590;2023-04-01T23:46:02;1.73;;;0.70;;
61250;SDS011;47126;47.508;8.590;2023-04-01T23:48:35;1.98;;;0.73;;
61250;SDS011;47126;47.508;8.590;2023-04-01T23:51:02;2.22;;;0.70;;
61250;SDS011;47126;47.508;8.590;2023-04-01T23:53:34;1.17;;;0.70;;
61250;SDS011;47126;47.508;8.590;2023-04-01T23:56:01;1.63;;;0.80;;
61250;SDS011;47126;47.508;8.590;2023-04-01T23:58:38;2.13;;;0.60;;
